METAR Data
IDs: Format: Raw Decoded Include TAF

Data at: 0147 UTC 22 Sep 2018

METAR for:KHLX (Hillsville/Twin Cnty, VA, US)
Text:KHLX 220135Z AUTO 19004KT 10SM SCT042 21/20 A3023 RMK AO2 T02110200
Temperature: 21.1°C ( 70°F)
Dewpoint: 20.0°C ( 68°F) [RH = 93%]
Pressure (altimeter):30.23 inches Hg (1023.8 mb)
Winds:from the S (190 degrees) at 5 MPH (4 knots; 2.1 m/s)
Visibility:10 or more sm (16+ km)
Ceiling:at least 12,000 feet AGL
Clouds: scattered clouds at 4200 feet AGL
QC Flag:automated observation with no human augmentation